sensor_id;sensor_type;location;lat;lon;timestamp;temperature;humidity
44166;DHT22;30476;53.468;9.826;2023-03-11T00:02:10;2.50;99.90
44166;DHT22;30476;53.468;9.826;2023-03-11T00:04:36;2.50;99.90
44166;DHT22;30476;53.468;9.826;2023-03-11T00:07:05;2.50;99.90
44166;DHT22;30476;53.468;9.826;2023-03-11T00:09:31;2.40;99.90
44166;DHT22;30476;53.468;9.826;2023-03-11T00:11:58;2.40;99.90
44166;DHT22;30476;53.468;9.826;2023-03-11T00:14:23;2.40;99.90
44166;DHT22;30476;53.468;9.826;2023-03-11T00:16:49;2.50;99.90
44166;DHT22;30476;53.468;9.826;2023-03-11T00:19:15;2.50;99.90
44166;DHT22;30476;53.468;9.826;2023-03-11T00:21:41;2.50;99.90
44166;DHT22;30476;53.468;9.826;2023-03-11T00:24:07;2.50;99.90
44166;DHT22;30476;53.468;9.826;2023-03-11T00:26:32;2.50;99.90
44166;DHT22;30476;53.468;9.826;2023-03-11T00:28:58;2.50;99.90
44166;DHT22;30476;53.468;9.826;2023-03-11T00:31:24;2.50;99.90
44166;DHT22;30476;53.468;9.826;2023-03-11T00:33:52;2.50;99.90
44166;DHT22;30476;53.468;9.826;2023-03-11T00:36:32;2.50;99.90
44166;DHT22;30476;53.468;9.826;2023-03-11T00:39:00;2.50;99.90
44166;DHT22;30476;53.468;9.826;2023-03-11T00:41:27;2.60;99.90
44166;DHT22;30476;53.468;9.826;2023-03-11T00:43:53;2.50;99.90
44166;DHT22;30476;53.468;9.826;2023-03-11T00:46:19;2.50;99.90
44166;DHT22;30476;53.468;9.826;2023-03-11T00:48:45;2.50;99.90
44166;DHT22;30476;53.468;9.826;2023-03-11T00:51:14;2.50;99.90
44166;DHT22;30476;53.468;9.826;2023-03-11T00:53:40;2.50;99.90
44166;DHT22;30476;53.468;9.826;2023-03-11T00:56:07;2.50;99.90
44166;DHT22;30476;53.468;9.826;2023-03-11T00:58:33;2.50;99.90
44166;DHT22;30476;53.468;9.826;2023-03-11T01:01:06;2.60;99.90
44166;DHT22;30476;53.468;9.826;2023-03-11T01:03:31;2.60;99.90
44166;DHT22;30476;53.468;9.826;2023-03-11T01:05:57;2.60;99.90
44166;DHT22;30476;53.468;9.826;2023-03-11T01:08:23;2.60;99.90
44166;DHT22;30476;53.468;9.826;2023-03-11T01:10:49;2.60;99.90
44166;DHT22;30476;53.468;9.826;2023-03-11T01:13:15;2.60;99.90
44166;DHT22;30476;53.468;9.826;2023-03-11T01:15:40;2.60;99.90
44166;DHT22;30476;53.468;9.826;2023-03-11T01:18:06;2.60;99.90
44166;DHT22;30476;53.468;9.826;2023-03-11T01:20:33;2.60;99.90
44166;DHT22;30476;53.468;9.826;2023-03-11T01:22:59;2.60;99.90
44166;DHT22;30476;53.468;9.826;2023-03-11T01:25:24;2.60;99.90
44166;DHT22;30476;53.468;9.826;2023-03-11T01:27:50;2.60;99.90
44166;DHT22;30476;53.468;9.826;2023-03-11T01:30:19;2.60;99.90
44166;DHT22;30476;53.468;9.826;2023-03-11T01:32:45;2.60;99.90
44166;DHT22;30476;53.468;9.826;2023-03-11T01:35:13;2.60;99.90
44166;DHT22;30476;53.468;9.826;2023-03-11T01:37:39;2.60;99.90
44166;DHT22;30476;53.468;9.826;2023-03-11T01:40:06;2.60;99.90
44166;DHT22;30476;53.468;9.826;2023-03-11T01:42:32;2.60;99.90
44166;DHT22;30476;53.468;9.826;2023-03-11T01:44:58;2.60;99.90
44166;DHT22;30476;53.468;9.826;2023-03-11T01:47:36;2.60;99.90
44166;DHT22;30476;53.468;9.826;2023-03-11T01:50:06;2.60;99.90
44166;DHT22;30476;53.468;9.826;2023-03-11T01:52:33;2.60;99.90
44166;DHT22;30476;53.468;9.826;2023-03-11T01:54:59;2.60;99.90
44166;DHT22;30476;53.468;9.826;2023-03-11T01:57:24;2.60;99.90
44166;DHT22;30476;53.468;9.826;2023-03-11T01:59:52;2.60;99.90
44166;DHT22;30476;53.468;9.826;2023-03-11T02:02:31;2.60;99.90
44166;DHT22;30476;53.468;9.826;2023-03-11T02:05:01;2.60;99.90
44166;DHT22;30476;53.468;9.826;2023-03-11T02:07:27;2.50;99.90
44166;DHT22;30476;53.468;9.826;2023-03-11T02:09:53;2.50;99.90
44166;DHT22;30476;53.468;9.826;2023-03-11T02:12:19;2.60;99.90
44166;DHT22;30476;53.468;9.826;2023-03-11T02:14:48;2.50;99.90
44166;DHT22;30476;53.468;9.826;2023-03-11T02:17:15;2.50;99.90
44166;DHT22;30476;53.468;9.826;2023-03-11T02:22:38;2.50;99.90
44166;DHT22;30476;53.468;9.826;2023-03-11T02:25:33;2.50;99.90
44166;DHT22;30476;53.468;9.826;2023-03-11T02:28:02;2.50;99.90
44166;DHT22;30476;53.468;9.826;2023-03-11T02:30:31;2.50;99.90
44166;DHT22;30476;53.468;9.826;2023-03-11T02:32:58;2.50;99.90
44166;DHT22;30476;53.468;9.826;2023-03-11T02:35:24;2.40;99.90
44166;DHT22;30476;53.468;9.826;2023-03-11T02:37:52;2.40;99.90
44166;DHT22;30476;53.468;9.826;2023-03-11T02:43:05;2.50;99.90
44166;DHT22;30476;53.468;9.826;2023-03-11T02:45:32;2.40;99.90
44166;DHT22;30476;53.468;9.826;2023-03-11T02:47:59;2.50;99.90
44166;DHT22;30476;53.468;9.826;2023-03-11T02:50:27;2.40;99.90
44166;DHT22;30476;53.468;9.826;2023-03-11T02:52:53;2.40;99.90
44166;DHT22;30476;53.468;9.826;2023-03-11T02:55:19;2.50;99.90
44166;DHT22;30476;53.468;9.826;2023-03-11T02:57:46;2.50;99.90
44166;DHT22;30476;53.468;9.826;2023-03-11T03:00:13;2.50;99.90
44166;DHT22;30476;53.468;9.826;2023-03-11T03:02:42;2.50;99.90
44166;DHT22;30476;53.468;9.826;2023-03-11T03:05:09;2.50;99.90
44166;DHT22;30476;53.468;9.826;2023-03-11T03:07:35;2.50;99.90
44166;DHT22;30476;53.468;9.826;2023-03-11T03:10:02;2.50;99.90
44166;DHT22;30476;53.468;9.826;2023-03-11T03:12:29;2.50;99.90
44166;DHT22;30476;53.468;9.826;2023-03-11T03:14:55;2.50;99.90
44166;DHT22;30476;53.468;9.826;2023-03-11T03:17:23;2.50;99.90
44166;DHT22;30476;53.468;9.826;2023-03-11T03:19:49;2.50;99.90
44166;DHT22;30476;53.468;9.826;2023-03-11T03:22:15;2.60;99.90
44166;DHT22;30476;53.468;9.826;2023-03-11T03:24:41;2.60;99.90
44166;DHT22;30476;53.468;9.826;2023-03-11T03:27:06;2.50;99.90
44166;DHT22;30476;53.468;9.826;2023-03-11T03:29:32;2.50;99.90
44166;DHT22;30476;53.468;9.826;2023-03-11T03:31:58;2.50;99.90
44166;DHT22;30476;53.468;9.826;2023-03-11T03:34:24;2.60;99.90
44166;DHT22;30476;53.468;9.826;2023-03-11T03:36:50;2.60;99.90
44166;DHT22;30476;53.468;9.826;2023-03-11T03:39:15;2.50;99.90
44166;DHT22;30476;53.468;9.826;2023-03-11T03:41:44;2.60;99.90
44166;DHT22;30476;53.468;9.826;2023-03-11T03:44:10;2.50;99.90
44166;DHT22;30476;53.468;9.826;2023-03-11T03:46:36;2.50;99.90
44166;DHT22;30476;53.468;9.826;2023-03-11T03:49:03;2.50;99.90
44166;DHT22;30476;53.468;9.826;2023-03-11T03:51:29;2.50;99.90
44166;DHT22;30476;53.468;9.826;2023-03-11T03:53:54;2.50;99.90
44166;DHT22;30476;53.468;9.826;2023-03-11T03:56:20;2.50;99.90
44166;DHT22;30476;53.468;9.826;2023-03-11T03:58:46;2.50;99.90
44166;DHT22;30476;53.468;9.826;2023-03-11T04:01:12;2.50;99.90
44166;DHT22;30476;53.468;9.826;2023-03-11T04:03:38;2.40;99.90
44166;DHT22;30476;53.468;9.826;2023-03-11T04:06:15;2.40;99.90
44166;DHT22;30476;53.468;9.826;2023-03-11T04:08:42;2.50;99.90
44166;DHT22;30476;53.468;9.826;2023-03-11T04:11:08;2.50;99.90
44166;DHT22;30476;53.468;9.826;2023-03-11T04:13:34;2.40;99.90
44166;DHT22;30476;53.468;9.826;2023-03-11T04:16:02;2.40;99.90
44166;DHT22;30476;53.468;9.826;2023-03-11T04:18:28;2.50;99.90
44166;DHT22;30476;53.468;9.826;2023-03-11T04:20:54;2.50;99.90
44166;DHT22;30476;53.468;9.826;2023-03-11T04:23:20;2.40;99.90
44166;DHT22;30476;53.468;9.826;2023-03-11T04:25:46;2.40;99.90
44166;DHT22;30476;53.468;9.826;2023-03-11T04:28:11;2.40;99.90
44166;DHT22;30476;53.468;9.826;2023-03-11T04:30:38;2.40;99.90
44166;DHT22;30476;53.468;9.826;2023-03-11T04:33:04;2.40;99.90
44166;DHT22;30476;53.468;9.826;2023-03-11T04:35:30;2.40;99.90
44166;DHT22;30476;53.468;9.826;2023-03-11T04:37:56;2.40;99.90
44166;DHT22;30476;53.468;9.826;2023-03-11T04:40:22;2.40;99.90
44166;DHT22;30476;53.468;9.826;2023-03-11T04:42:48;2.40;99.90
44166;DHT22;30476;53.468;9.826;2023-03-11T04:45:13;2.40;99.90
44166;DHT22;30476;53.468;9.826;2023-03-11T04:47:39;2.40;99.90
44166;DHT22;30476;53.468;9.826;2023-03-11T04:50:05;2.40;99.90
44166;DHT22;30476;53.468;9.826;2023-03-11T04:52:31;2.30;99.90
44166;DHT22;30476;53.468;9.826;2023-03-11T04:54:57;2.30;99.90
44166;DHT22;30476;53.468;9.826;2023-03-11T04:57:23;2.30;99.90
44166;DHT22;30476;53.468;9.826;2023-03-11T04:59:48;2.30;99.90
44166;DHT22;30476;53.468;9.826;2023-03-11T05:02:14;2.30;99.90
44166;DHT22;30476;53.468;9.826;2023-03-11T05:04:40;2.30;99.90
44166;DHT22;30476;53.468;9.826;2023-03-11T05:07:06;2.20;99.90
44166;DHT22;30476;53.468;9.826;2023-03-11T05:09:33;2.20;99.90
44166;DHT22;30476;53.468;9.826;2023-03-11T05:11:59;2.20;99.90
44166;DHT22;30476;53.468;9.826;2023-03-11T05:14:26;2.10;99.90
44166;DHT22;30476;53.468;9.826;2023-03-11T05:16:52;2.10;99.90
44166;DHT22;30476;53.468;9.826;2023-03-11T05:19:17;2.10;99.90
44166;DHT22;30476;53.468;9.826;2023-03-11T05:21:56;2.10;99.90
44166;DHT22;30476;53.468;9.826;2023-03-11T05:24:22;2.10;99.90
44166;DHT22;30476;53.468;9.826;2023-03-11T05:26:47;2.10;99.90
44166;DHT22;30476;53.468;9.826;2023-03-11T05:29:13;2.10;99.90
44166;DHT22;30476;53.468;9.826;2023-03-11T05:31:39;2.10;99.90
44166;DHT22;30476;53.468;9.826;2023-03-11T05:34:05;2.10;99.90
44166;DHT22;30476;53.468;9.826;2023-03-11T05:36:30;2.10;99.90
44166;DHT22;30476;53.468;9.826;2023-03-11T05:38:56;2.10;99.90
44166;DHT22;30476;53.468;9.826;2023-03-11T05:41:22;2.10;99.90
44166;DHT22;30476;53.468;9.826;2023-03-11T05:43:48;2.10;99.90
44166;DHT22;30476;53.468;9.826;2023-03-11T05:46:14;2.10;99.90
44166;DHT22;30476;53.468;9.826;2023-03-11T05:48:40;2.10;99.90
44166;DHT22;30476;53.468;9.826;2023-03-11T05:51:07;2.10;99.90
44166;DHT22;30476;53.468;9.826;2023-03-11T05:53:33;2.10;99.90
44166;DHT22;30476;53.468;9.826;2023-03-11T05:55:59;2.10;99.90
44166;DHT22;30476;53.468;9.826;2023-03-11T05:58:29;2.10;99.90
44166;DHT22;30476;53.468;9.826;2023-03-11T06:00:55;2.10;99.90
44166;DHT22;30476;53.468;9.826;2023-03-11T06:03:21;2.10;99.90
44166;DHT22;30476;53.468;9.826;2023-03-11T06:05:48;2.10;99.90
44166;DHT22;30476;53.468;9.826;2023-03-11T06:08:14;2.10;99.90
44166;DHT22;30476;53.468;9.826;2023-03-11T06:10:41;2.00;99.90
44166;DHT22;30476;53.468;9.826;2023-03-11T06:13:07;2.10;99.90
44166;DHT22;30476;53.468;9.826;2023-03-11T06:15:34;2.10;99.90
44166;DHT22;30476;53.468;9.826;2023-03-11T06:18:00;2.00;99.90
44166;DHT22;30476;53.468;9.826;2023-03-11T06:20:26;2.00;99.90
44166;DHT22;30476;53.468;9.826;2023-03-11T06:22:52;2.00;99.90
44166;DHT22;30476;53.468;9.826;2023-03-11T06:25:18;2.00;99.90
44166;DHT22;30476;53.468;9.826;2023-03-11T06:27:48;2.00;99.90
44166;DHT22;30476;53.468;9.826;2023-03-11T06:30:17;1.90;99.90
44166;DHT22;30476;53.468;9.826;2023-03-11T06:32:44;1.90;99.90
44166;DHT22;30476;53.468;9.826;2023-03-11T06:35:10;1.90;99.90
44166;DHT22;30476;53.468;9.826;2023-03-11T06:37:36;1.90;99.90
44166;DHT22;30476;53.468;9.826;2023-03-11T06:40:03;1.90;99.90
44166;DHT22;30476;53.468;9.826;2023-03-11T06:42:30;1.90;99.90
44166;DHT22;30476;53.468;9.826;2023-03-11T06:44:56;1.90;99.90
44166;DHT22;30476;53.468;9.826;2023-03-11T06:47:21;1.90;99.90
44166;DHT22;30476;53.468;9.826;2023-03-11T06:49:49;1.90;99.90
44166;DHT22;30476;53.468;9.826;2023-03-11T06:52:15;1.90;99.90
44166;DHT22;30476;53.468;9.826;2023-03-11T06:54:41;1.90;99.90
44166;DHT22;30476;53.468;9.826;2023-03-11T06:57:08;1.90;99.90
44166;DHT22;30476;53.468;9.826;2023-03-11T06:59:34;1.90;99.90
44166;DHT22;30476;53.468;9.826;2023-03-11T07:02:01;1.90;99.90
44166;DHT22;30476;53.468;9.826;2023-03-11T07:04:29;1.90;99.90
44166;DHT22;30476;53.468;9.826;2023-03-11T07:06:55;2.00;99.90
44166;DHT22;30476;53.468;9.826;2023-03-11T07:09:21;2.00;99.90
44166;DHT22;30476;53.468;9.826;2023-03-11T07:11:50;2.00;99.90
44166;DHT22;30476;53.468;9.826;2023-03-11T07:14:17;2.00;99.90
44166;DHT22;30476;53.468;9.826;2023-03-11T07:16:43;2.00;99.90
44166;DHT22;30476;53.468;9.826;2023-03-11T07:19:10;2.00;99.90
44166;DHT22;30476;53.468;9.826;2023-03-11T07:21:36;2.10;99.90
44166;DHT22;30476;53.468;9.826;2023-03-11T07:24:03;2.10;99.90
44166;DHT22;30476;53.468;9.826;2023-03-11T07:26:30;2.10;99.90
44166;DHT22;30476;53.468;9.826;2023-03-11T07:28:57;2.10;99.90
44166;DHT22;30476;53.468;9.826;2023-03-11T07:31:25;2.10;99.90
44166;DHT22;30476;53.468;9.826;2023-03-11T07:33:52;2.20;99.90
44166;DHT22;30476;53.468;9.826;2023-03-11T07:36:22;2.20;99.90
44166;DHT22;30476;53.468;9.826;2023-03-11T07:38:54;2.30;99.90
44166;DHT22;30476;53.468;9.826;2023-03-11T07:41:23;2.30;99.90
44166;DHT22;30476;53.468;9.826;2023-03-11T07:43:48;2.30;99.90
44166;DHT22;30476;53.468;9.826;2023-03-11T07:46:16;2.30;99.90
44166;DHT22;30476;53.468;9.826;2023-03-11T07:48:44;2.40;99.90
44166;DHT22;30476;53.468;9.826;2023-03-11T07:51:13;2.40;99.90
44166;DHT22;30476;53.468;9.826;2023-03-11T07:53:40;2.40;99.90
44166;DHT22;30476;53.468;9.826;2023-03-11T07:56:07;2.40;99.90
44166;DHT22;30476;53.468;9.826;2023-03-11T07:58:33;2.50;99.90
44166;DHT22;30476;53.468;9.826;2023-03-11T08:01:07;2.50;99.90
44166;DHT22;30476;53.468;9.826;2023-03-11T08:03:34;2.50;99.90
44166;DHT22;30476;53.468;9.826;2023-03-11T08:06:00;2.50;99.90
44166;DHT22;30476;53.468;9.826;2023-03-11T08:08:26;2.60;99.90
44166;DHT22;30476;53.468;9.826;2023-03-11T08:10:53;2.60;99.90
44166;DHT22;30476;53.468;9.826;2023-03-11T08:13:19;2.60;99.90
44166;DHT22;30476;53.468;9.826;2023-03-11T08:15:45;2.70;99.90
44166;DHT22;30476;53.468;9.826;2023-03-11T08:18:11;2.70;99.90
44166;DHT22;30476;53.468;9.826;2023-03-11T08:20:37;2.70;99.90
44166;DHT22;30476;53.468;9.826;2023-03-11T08:23:03;2.70;99.90
44166;DHT22;30476;53.468;9.826;2023-03-11T08:25:29;2.70;99.90
44166;DHT22;30476;53.468;9.826;2023-03-11T08:27:55;2.70;99.90
44166;DHT22;30476;53.468;9.826;2023-03-11T08:30:21;2.80;99.90
44166;DHT22;30476;53.468;9.826;2023-03-11T08:32:48;2.80;99.90
44166;DHT22;30476;53.468;9.826;2023-03-11T08:35:14;2.80;99.90
44166;DHT22;30476;53.468;9.826;2023-03-11T08:37:40;2.80;99.90
44166;DHT22;30476;53.468;9.826;2023-03-11T08:40:07;2.80;99.90
44166;DHT22;30476;53.468;9.826;2023-03-11T08:42:35;2.80;99.90
44166;DHT22;30476;53.468;9.826;2023-03-11T08:45:01;2.90;99.90
44166;DHT22;30476;53.468;9.826;2023-03-11T08:47:26;2.90;99.90
44166;DHT22;30476;53.468;9.826;2023-03-11T08:49:52;2.90;99.90
44166;DHT22;30476;53.468;9.826;2023-03-11T08:52:18;3.00;99.90
44166;DHT22;30476;53.468;9.826;2023-03-11T08:54:44;3.00;99.90
44166;DHT22;30476;53.468;9.826;2023-03-11T08:57:10;3.00;99.90
44166;DHT22;30476;53.468;9.826;2023-03-11T08:59:35;3.10;99.90
44166;DHT22;30476;53.468;9.826;2023-03-11T09:02:01;3.10;99.90
44166;DHT22;30476;53.468;9.826;2023-03-11T09:04:27;3.10;99.90
44166;DHT22;30476;53.468;9.826;2023-03-11T09:06:53;3.20;99.90
44166;DHT22;30476;53.468;9.826;2023-03-11T09:09:18;3.20;99.90
44166;DHT22;30476;53.468;9.826;2023-03-11T09:11:46;3.20;99.90
44166;DHT22;30476;53.468;9.826;2023-03-11T09:14:12;3.20;99.90
44166;DHT22;30476;53.468;9.826;2023-03-11T09:16:38;3.30;99.90
44166;DHT22;30476;53.468;9.826;2023-03-11T09:19:04;3.40;99.90
44166;DHT22;30476;53.468;9.826;2023-03-11T09:21:33;3.40;99.90
44166;DHT22;30476;53.468;9.826;2023-03-11T09:23:59;3.40;99.90
44166;DHT22;30476;53.468;9.826;2023-03-11T09:26:25;3.50;99.90
44166;DHT22;30476;53.468;9.826;2023-03-11T09:28:51;3.50;99.90
44166;DHT22;30476;53.468;9.826;2023-03-11T09:31:18;3.50;99.90
44166;DHT22;30476;53.468;9.826;2023-03-11T09:33:44;3.60;99.90
44166;DHT22;30476;53.468;9.826;2023-03-11T09:36:15;3.60;99.90
44166;DHT22;30476;53.468;9.826;2023-03-11T09:38:42;3.60;99.90
44166;DHT22;30476;53.468;9.826;2023-03-11T09:41:25;3.70;99.90
44166;DHT22;30476;53.468;9.826;2023-03-11T09:44:29;3.70;99.90
44166;DHT22;30476;53.468;9.826;2023-03-11T09:52:36;3.90;99.90
44166;DHT22;30476;53.468;9.826;2023-03-11T09:58:08;3.90;99.90
44166;DHT22;30476;53.468;9.826;2023-03-11T10:00:35;4.00;99.90
44166;DHT22;30476;53.468;9.826;2023-03-11T10:03:02;3.90;99.90
44166;DHT22;30476;53.468;9.826;2023-03-11T10:05:30;3.90;99.90
44166;DHT22;30476;53.468;9.826;2023-03-11T10:08:02;4.00;99.90
44166;DHT22;30476;53.468;9.826;2023-03-11T10:10:33;4.00;99.90
44166;DHT22;30476;53.468;9.826;2023-03-11T10:13:13;4.10;99.90
44166;DHT22;30476;53.468;9.826;2023-03-11T10:15:57;4.20;99.90
44166;DHT22;30476;53.468;9.826;2023-03-11T10:18:48;4.20;99.90
44166;DHT22;30476;53.468;9.826;2023-03-11T10:21:26;4.20;99.90
44166;DHT22;30476;53.468;9.826;2023-03-11T10:24:12;4.30;99.90
44166;DHT22;30476;53.468;9.826;2023-03-11T10:26:50;4.40;99.90
44166;DHT22;30476;53.468;9.826;2023-03-11T10:29:28;4.40;99.90
44166;DHT22;30476;53.468;9.826;2023-03-11T10:32:14;4.50;99.90
44166;DHT22;30476;53.468;9.826;2023-03-11T10:37:22;4.70;99.90
44166;DHT22;30476;53.468;9.826;2023-03-11T10:39:49;4.80;99.90
44166;DHT22;30476;53.468;9.826;2023-03-11T10:42:20;4.90;99.90
44166;DHT22;30476;53.468;9.826;2023-03-11T10:44:47;5.00;99.90
44166;DHT22;30476;53.468;9.826;2023-03-11T10:47:17;5.20;99.90
44166;DHT22;30476;53.468;9.826;2023-03-11T10:49:43;5.30;99.90
44166;DHT22;30476;53.468;9.826;2023-03-11T10:52:09;5.40;99.90
44166;DHT22;30476;53.468;9.826;2023-03-11T10:54:36;5.60;99.90
44166;DHT22;30476;53.468;9.826;2023-03-11T10:57:26;5.80;99.90
44166;DHT22;30476;53.468;9.826;2023-03-11T10:59:57;6.10;99.90
44166;DHT22;30476;53.468;9.826;2023-03-11T11:02:37;6.20;99.90
44166;DHT22;30476;53.468;9.826;2023-03-11T11:05:31;6.30;99.90
44166;DHT22;30476;53.468;9.826;2023-03-11T11:08:13;6.50;99.90
44166;DHT22;30476;53.468;9.826;2023-03-11T11:10:52;6.60;99.90
44166;DHT22;30476;53.468;9.826;2023-03-11T11:13:21;6.80;99.90
44166;DHT22;30476;53.468;9.826;2023-03-11T11:15:59;6.90;99.90
44166;DHT22;30476;53.468;9.826;2023-03-11T11:24:24;7.40;99.90
44166;DHT22;30476;53.468;9.826;2023-03-11T11:29:28;7.70;99.90
44166;DHT22;30476;53.468;9.826;2023-03-11T11:35:05;8.00;99.90
44166;DHT22;30476;53.468;9.826;2023-03-11T11:37:34;8.20;99.90
44166;DHT22;30476;53.468;9.826;2023-03-11T11:40:28;8.40;99.90
44166;DHT22;30476;53.468;9.826;2023-03-11T11:42:56;8.60;99.90
44166;DHT22;30476;53.468;9.826;2023-03-11T11:48:05;8.80;99.90
44166;DHT22;30476;53.468;9.826;2023-03-11T11:50:44;8.90;99.90
44166;DHT22;30476;53.468;9.826;2023-03-11T11:56:04;9.00;99.90
44166;DHT22;30476;53.468;9.826;2023-03-11T11:58:30;9.10;99.90
44166;DHT22;30476;53.468;9.826;2023-03-11T12:01:18;9.20;99.90
44166;DHT22;30476;53.468;9.826;2023-03-11T12:11:51;9.40;99.90
44166;DHT22;30476;53.468;9.826;2023-03-11T12:14:33;9.40;99.90
44166;DHT22;30476;53.468;9.826;2023-03-11T12:17:03;9.40;99.90
44166;DHT22;30476;53.468;9.826;2023-03-11T12:19:51;9.40;99.90
44166;DHT22;30476;53.468;9.826;2023-03-11T12:22:45;9.50;99.90
44166;DHT22;30476;53.468;9.826;2023-03-11T12:30:40;9.80;99.90
44166;DHT22;30476;53.468;9.826;2023-03-11T12:33:16;9.90;99.90
44166;DHT22;30476;53.468;9.826;2023-03-11T12:35:48;10.10;99.90
44166;DHT22;30476;53.468;9.826;2023-03-11T12:38:26;10.10;99.90
44166;DHT22;30476;53.468;9.826;2023-03-11T12:40:59;10.10;99.90
44166;DHT22;30476;53.468;9.826;2023-03-11T12:46:03;10.10;99.90
44166;DHT22;30476;53.468;9.826;2023-03-11T12:50:58;10.10;99.90
44166;DHT22;30476;53.468;9.826;2023-03-11T13:04:32;10.40;99.90
44166;DHT22;30476;53.468;9.826;2023-03-11T13:12:43;10.60;99.90
44166;DHT22;30476;53.468;9.826;2023-03-11T13:31:40;10.50;99.90
44166;DHT22;30476;53.468;9.826;2023-03-11T13:39:59;10.70;99.90
44166;DHT22;30476;53.468;9.826;2023-03-11T13:42:32;10.60;99.90
44166;DHT22;30476;53.468;9.826;2023-03-11T13:45:00;10.60;99.90
44166;DHT22;30476;53.468;9.826;2023-03-11T13:47:29;10.60;99.90
44166;DHT22;30476;53.468;9.826;2023-03-11T13:50:05;10.40;99.90
44166;DHT22;30476;53.468;9.826;2023-03-11T13:52:43;10.40;99.90
44166;DHT22;30476;53.468;9.826;2023-03-11T13:55:18;10.50;99.90
44166;DHT22;30476;53.468;9.826;2023-03-11T13:57:56;10.50;99.90
44166;DHT22;30476;53.468;9.826;2023-03-11T14:00:27;10.50;99.80
44166;DHT22;30476;53.468;9.826;2023-03-11T14:03:03;10.50;99.90
44166;DHT22;30476;53.468;9.826;2023-03-11T14:05:39;10.50;99.40
44166;DHT22;30476;53.468;9.826;2023-03-11T14:08:27;10.50;99.90
44166;DHT22;30476;53.468;9.826;2023-03-11T14:10:56;10.40;99.90
44166;DHT22;30476;53.468;9.826;2023-03-11T14:13:23;10.30;99.90
44166;DHT22;30476;53.468;9.826;2023-03-11T14:19:00;10.00;99.40
44166;DHT22;30476;53.468;9.826;2023-03-11T14:21:26;9.90;99.90
44166;DHT22;30476;53.468;9.826;2023-03-11T14:23:54;9.80;99.90
44166;DHT22;30476;53.468;9.826;2023-03-11T14:26:28;9.60;99.90
44166;DHT22;30476;53.468;9.826;2023-03-11T14:28:57;9.50;99.90
44166;DHT22;30476;53.468;9.826;2023-03-11T14:31:32;9.50;99.90
44166;DHT22;30476;53.468;9.826;2023-03-11T14:36:43;9.30;99.90
44166;DHT22;30476;53.468;9.826;2023-03-11T14:39:28;9.30;99.90
44166;DHT22;30476;53.468;9.826;2023-03-11T14:44:26;9.10;99.90
44166;DHT22;30476;53.468;9.826;2023-03-11T14:46:58;9.00;99.90
44166;DHT22;30476;53.468;9.826;2023-03-11T14:49:27;8.80;99.90
44166;DHT22;30476;53.468;9.826;2023-03-11T14:52:05;8.70;99.90
44166;DHT22;30476;53.468;9.826;2023-03-11T14:54:32;8.60;99.90
44166;DHT22;30476;53.468;9.826;2023-03-11T14:57:18;8.50;99.90
44166;DHT22;30476;53.468;9.826;2023-03-11T14:59:48;8.40;99.90
44166;DHT22;30476;53.468;9.826;2023-03-11T15:04:54;8.20;99.90
44166;DHT22;30476;53.468;9.826;2023-03-11T15:07:22;8.10;99.90
44166;DHT22;30476;53.468;9.826;2023-03-11T15:09:48;8.00;99.90
44166;DHT22;30476;53.468;9.826;2023-03-11T15:12:34;8.00;99.90
44166;DHT22;30476;53.468;9.826;2023-03-11T15:15:02;7.90;99.90
44166;DHT22;30476;53.468;9.826;2023-03-11T15:17:28;7.90;99.90
44166;DHT22;30476;53.468;9.826;2023-03-11T15:19:59;7.70;99.90
44166;DHT22;30476;53.468;9.826;2023-03-11T15:22:37;7.70;99.90
44166;DHT22;30476;53.468;9.826;2023-03-11T15:25:15;7.50;99.90
44166;DHT22;30476;53.468;9.826;2023-03-11T15:27:41;7.40;99.90
44166;DHT22;30476;53.468;9.826;2023-03-11T15:30:18;7.30;99.90
44166;DHT22;30476;53.468;9.826;2023-03-11T15:32:44;7.30;99.90
44166;DHT22;30476;53.468;9.826;2023-03-11T15:37:43;7.10;99.90
44166;DHT22;30476;53.468;9.826;2023-03-11T15:40:24;7.00;99.90
44166;DHT22;30476;53.468;9.826;2023-03-11T15:43:20;7.00;99.90
44166;DHT22;30476;53.468;9.826;2023-03-11T15:45:49;6.90;99.90
44166;DHT22;30476;53.468;9.826;2023-03-11T15:48:15;6.80;99.90
44166;DHT22;30476;53.468;9.826;2023-03-11T15:50:52;6.80;99.90
44166;DHT22;30476;53.468;9.826;2023-03-11T15:53:18;6.80;99.90
44166;DHT22;30476;53.468;9.826;2023-03-11T15:55:45;6.70;99.90
44166;DHT22;30476;53.468;9.826;2023-03-11T15:58:14;6.70;99.90
44166;DHT22;30476;53.468;9.826;2023-03-11T16:00:45;6.60;99.90
44166;DHT22;30476;53.468;9.826;2023-03-11T16:03:11;6.50;99.90
44166;DHT22;30476;53.468;9.826;2023-03-11T16:05:37;6.40;99.90
44166;DHT22;30476;53.468;9.826;2023-03-11T16:08:03;6.30;99.90
44166;DHT22;30476;53.468;9.826;2023-03-11T16:10:29;6.30;99.90
44166;DHT22;30476;53.468;9.826;2023-03-11T16:12:55;6.20;99.90
44166;DHT22;30476;53.468;9.826;2023-03-11T16:15:24;6.10;99.90
44166;DHT22;30476;53.468;9.826;2023-03-11T16:18:00;5.90;99.90
44166;DHT22;30476;53.468;9.826;2023-03-11T16:20:28;5.90;99.90
44166;DHT22;30476;53.468;9.826;2023-03-11T16:22:57;5.80;99.90
44166;DHT22;30476;53.468;9.826;2023-03-11T16:27:52;5.60;99.90
44166;DHT22;30476;53.468;9.826;2023-03-11T16:30:19;5.50;99.90
44166;DHT22;30476;53.468;9.826;2023-03-11T16:32:45;5.40;99.90
44166;DHT22;30476;53.468;9.826;2023-03-11T16:35:10;5.30;99.90
44166;DHT22;30476;53.468;9.826;2023-03-11T16:37:37;5.30;99.90
44166;DHT22;30476;53.468;9.826;2023-03-11T16:40:04;5.30;99.90
44166;DHT22;30476;53.468;9.826;2023-03-11T16:42:32;5.20;99.90
44166;DHT22;30476;53.468;9.826;2023-03-11T16:44:58;5.20;99.90
44166;DHT22;30476;53.468;9.826;2023-03-11T16:47:24;5.10;99.90
44166;DHT22;30476;53.468;9.826;2023-03-11T16:49:49;5.10;99.90
44166;DHT22;30476;53.468;9.826;2023-03-11T16:52:21;5.10;99.90
44166;DHT22;30476;53.468;9.826;2023-03-11T16:54:48;5.00;99.90
44166;DHT22;30476;53.468;9.826;2023-03-11T16:57:14;4.90;99.90
44166;DHT22;30476;53.468;9.826;2023-03-11T16:59:40;4.90;99.90
44166;DHT22;30476;53.468;9.826;2023-03-11T17:02:09;4.80;99.90
44166;DHT22;30476;53.468;9.826;2023-03-11T17:04:34;4.80;99.90
44166;DHT22;30476;53.468;9.826;2023-03-11T17:07:03;4.70;99.90
44166;DHT22;30476;53.468;9.826;2023-03-11T17:09:29;4.60;99.90
44166;DHT22;30476;53.468;9.826;2023-03-11T17:11:55;4.60;99.90
44166;DHT22;30476;53.468;9.826;2023-03-11T17:14:20;4.50;99.90
44166;DHT22;30476;53.468;9.826;2023-03-11T17:16:46;4.40;99.90
44166;DHT22;30476;53.468;9.826;2023-03-11T17:19:12;4.40;99.90
44166;DHT22;30476;53.468;9.826;2023-03-11T17:21:38;4.40;99.90
44166;DHT22;30476;53.468;9.826;2023-03-11T17:24:04;4.30;99.90
44166;DHT22;30476;53.468;9.826;2023-03-11T17:26:31;4.30;99.90
44166;DHT22;30476;53.468;9.826;2023-03-11T17:28:58;4.30;99.90
44166;DHT22;30476;53.468;9.826;2023-03-11T17:31:23;4.20;99.90
44166;DHT22;30476;53.468;9.826;2023-03-11T17:33:49;4.20;99.90
44166;DHT22;30476;53.468;9.826;2023-03-11T17:36:16;4.20;99.90
44166;DHT22;30476;53.468;9.826;2023-03-11T17:38:43;4.10;99.90
44166;DHT22;30476;53.468;9.826;2023-03-11T17:41:11;4.10;99.90
44166;DHT22;30476;53.468;9.826;2023-03-11T17:43:38;4.00;99.90